sensor_id;sensor_type;location;lat;lon;timestamp;P1;durP1;ratioP1;P2;durP2;ratioP2
70729;SDS011;58315;53.336;55.932;2023-04-01T00:00:45;8.95;;;3.08;;
70729;SDS011;58315;53.336;55.932;2023-04-01T00:03:11;11.20;;;2.55;;
70729;SDS011;58315;53.336;55.932;2023-04-01T00:05:37;10.02;;;2.90;;
70729;SDS011;58315;53.336;55.932;2023-04-01T00:08:03;17.63;;;2.63;;
70729;SDS011;58315;53.336;55.932;2023-04-01T00:10:29;14.63;;;2.85;;
70729;SDS011;58315;53.336;55.932;2023-04-01T00:12:56;5.95;;;2.80;;
70729;SDS011;58315;53.336;55.932;2023-04-01T00:15:22;3.92;;;2.30;;
70729;SDS011;58315;53.336;55.932;2023-04-01T00:17:48;12.20;;;2.90;;
70729;SDS011;58315;53.336;55.932;2023-04-01T00:20:15;7.30;;;2.50;;
70729;SDS011;58315;53.336;55.932;2023-04-01T00:22:41;7.43;;;3.05;;
70729;SDS011;58315;53.336;55.932;2023-04-01T00:25:07;6.13;;;2.65;;
70729;SDS011;58315;53.336;55.932;2023-04-01T00:27:33;7.82;;;2.60;;
70729;SDS011;58315;53.336;55.932;2023-04-01T00:30:00;8.38;;;2.58;;
70729;SDS011;58315;53.336;55.932;2023-04-01T00:32:31;8.80;;;2.67;;
70729;SDS011;58315;53.336;55.932;2023-04-01T00:34:57;20.60;;;2.97;;
70729;SDS011;58315;53.336;55.932;2023-04-01T00:37:25;13.98;;;3.00;;
70729;SDS011;58315;53.336;55.932;2023-04-01T00:39:52;8.77;;;2.78;;
70729;SDS011;58315;53.336;55.932;2023-04-01T00:42:18;6.50;;;2.38;;
70729;SDS011;58315;53.336;55.932;2023-04-01T00:44:45;9.05;;;2.90;;
70729;SDS011;58315;53.336;55.932;2023-04-01T00:47:16;13.50;;;2.47;;
70729;SDS011;58315;53.336;55.932;2023-04-01T00:49:43;13.95;;;2.90;;
70729;SDS011;58315;53.336;55.932;2023-04-01T00:52:13;6.95;;;3.08;;
70729;SDS011;58315;53.336;55.932;2023-04-01T00:54:41;15.75;;;3.10;;
70729;SDS011;58315;53.336;55.932;2023-04-01T00:57:21;9.65;;;2.47;;
70729;SDS011;58315;53.336;55.932;2023-04-01T00:59:54;6.82;;;2.53;;
70729;SDS011;58315;53.336;55.932;2023-04-01T01:02:21;13.35;;;3.13;;
70729;SDS011;58315;53.336;55.932;2023-04-01T01:04:47;11.93;;;2.38;;
70729;SDS011;58315;53.336;55.932;2023-04-01T01:10:10;5.28;;;2.72;;
70729;SDS011;58315;53.336;55.932;2023-04-01T01:15:32;19.25;;;2.80;;
70729;SDS011;58315;53.336;55.932;2023-04-01T01:18:21;10.55;;;2.72;;
70729;SDS011;58315;53.336;55.932;2023-04-01T01:20:57;13.20;;;2.72;;
70729;SDS011;58315;53.336;55.932;2023-04-01T01:37:16;8.57;;;2.80;;
70729;SDS011;58315;53.336;55.932;2023-04-01T01:39:46;5.93;;;2.63;;
70729;SDS011;58315;53.336;55.932;2023-04-01T01:44:42;15.27;;;2.53;;
70729;SDS011;58315;53.336;55.932;2023-04-01T01:47:11;8.10;;;2.30;;
70729;SDS011;58315;53.336;55.932;2023-04-01T01:49:39;6.38;;;3.00;;
70729;SDS011;58315;53.336;55.932;2023-04-01T01:52:07;8.30;;;2.55;;
70729;SDS011;58315;53.336;55.932;2023-04-01T01:54:33;6.00;;;2.60;;
70729;SDS011;58315;53.336;55.932;2023-04-01T01:57:02;5.57;;;2.50;;
70729;SDS011;58315;53.336;55.932;2023-04-01T01:59:37;7.07;;;2.78;;
70729;SDS011;58315;53.336;55.932;2023-04-01T02:02:05;9.68;;;3.00;;
70729;SDS011;58315;53.336;55.932;2023-04-01T02:04:34;5.68;;;2.58;;
70729;SDS011;58315;53.336;55.932;2023-04-01T02:07:06;11.07;;;2.85;;
70729;SDS011;58315;53.336;55.932;2023-04-01T02:09:37;5.35;;;2.63;;
70729;SDS011;58315;53.336;55.932;2023-04-01T02:12:05;14.13;;;3.08;;
70729;SDS011;58315;53.336;55.932;2023-04-01T02:14:50;10.30;;;2.72;;
70729;SDS011;58315;53.336;55.932;2023-04-01T02:17:22;7.65;;;3.10;;
70729;SDS011;58315;53.336;55.932;2023-04-01T02:22:20;23.05;;;3.72;;
70729;SDS011;58315;53.336;55.932;2023-04-01T02:24:50;9.50;;;3.20;;
70729;SDS011;58315;53.336;55.932;2023-04-01T02:27:19;10.10;;;2.75;;
70729;SDS011;58315;53.336;55.932;2023-04-01T02:29:46;12.50;;;2.90;;
70729;SDS011;58315;53.336;55.932;2023-04-01T02:32:13;12.40;;;3.60;;
70729;SDS011;58315;53.336;55.932;2023-04-01T02:34:40;6.85;;;3.10;;
70729;SDS011;58315;53.336;55.932;2023-04-01T02:37:07;10.43;;;3.03;;
70729;SDS011;58315;53.336;55.932;2023-04-01T02:39:33;4.68;;;2.83;;
70729;SDS011;58315;53.336;55.932;2023-04-01T02:41:59;10.50;;;3.42;;
70729;SDS011;58315;53.336;55.932;2023-04-01T02:44:26;9.95;;;3.03;;
70729;SDS011;58315;53.336;55.932;2023-04-01T02:46:52;5.95;;;3.10;;
70729;SDS011;58315;53.336;55.932;2023-04-01T02:49:18;8.13;;;2.85;;
70729;SDS011;58315;53.336;55.932;2023-04-01T02:51:45;7.28;;;3.08;;
70729;SDS011;58315;53.336;55.932;2023-04-01T02:54:11;10.80;;;3.08;;
70729;SDS011;58315;53.336;55.932;2023-04-01T02:56:37;19.02;;;3.50;;
70729;SDS011;58315;53.336;55.932;2023-04-01T02:59:03;17.92;;;3.33;;
70729;SDS011;58315;53.336;55.932;2023-04-01T03:01:29;10.65;;;3.38;;
70729;SDS011;58315;53.336;55.932;2023-04-01T03:03:55;10.32;;;3.38;;
70729;SDS011;58315;53.336;55.932;2023-04-01T03:06:21;9.98;;;3.47;;
70729;SDS011;58315;53.336;55.932;2023-04-01T03:08:47;13.40;;;3.17;;
70729;SDS011;58315;53.336;55.932;2023-04-01T03:11:13;7.53;;;3.08;;
70729;SDS011;58315;53.336;55.932;2023-04-01T03:13:40;13.50;;;3.10;;
70729;SDS011;58315;53.336;55.932;2023-04-01T03:16:09;13.02;;;3.00;;
70729;SDS011;58315;53.336;55.932;2023-04-01T03:18:35;6.63;;;2.88;;
70729;SDS011;58315;53.336;55.932;2023-04-01T03:21:15;16.63;;;3.20;;
70729;SDS011;58315;53.336;55.932;2023-04-01T03:23:45;13.30;;;3.63;;
70729;SDS011;58315;53.336;55.932;2023-04-01T03:26:11;9.65;;;3.13;;
70729;SDS011;58315;53.336;55.932;2023-04-01T03:28:38;10.57;;;3.22;;
70729;SDS011;58315;53.336;55.932;2023-04-01T03:31:04;13.50;;;3.05;;
70729;SDS011;58315;53.336;55.932;2023-04-01T03:33:37;8.73;;;3.55;;
70729;SDS011;58315;53.336;55.932;2023-04-01T03:36:03;10.82;;;3.25;;
70729;SDS011;58315;53.336;55.932;2023-04-01T03:38:35;16.02;;;3.03;;
70729;SDS011;58315;53.336;55.932;2023-04-01T03:41:01;25.73;;;7.95;;
70729;SDS011;58315;53.336;55.932;2023-04-01T03:43:28;12.25;;;4.18;;
70729;SDS011;58315;53.336;55.932;2023-04-01T03:45:55;39.25;;;4.90;;
70729;SDS011;58315;53.336;55.932;2023-04-01T03:48:23;14.63;;;4.07;;
70729;SDS011;58315;53.336;55.932;2023-04-01T03:50:51;14.57;;;3.70;;
70729;SDS011;58315;53.336;55.932;2023-04-01T03:53:17;19.17;;;4.03;;
70729;SDS011;58315;53.336;55.932;2023-04-01T03:55:45;13.75;;;2.85;;
70729;SDS011;58315;53.336;55.932;2023-04-01T03:58:12;10.43;;;2.70;;
70729;SDS011;58315;53.336;55.932;2023-04-01T04:00:38;8.00;;;3.13;;
70729;SDS011;58315;53.336;55.932;2023-04-01T04:03:05;13.30;;;2.85;;
70729;SDS011;58315;53.336;55.932;2023-04-01T04:05:34;11.02;;;3.20;;
70729;SDS011;58315;53.336;55.932;2023-04-01T04:08:01;6.63;;;2.28;;
70729;SDS011;58315;53.336;55.932;2023-04-01T04:10:28;14.20;;;3.05;;
70729;SDS011;58315;53.336;55.932;2023-04-01T04:12:55;14.02;;;2.35;;
70729;SDS011;58315;53.336;55.932;2023-04-01T04:15:23;10.73;;;3.22;;
70729;SDS011;58315;53.336;55.932;2023-04-01T04:17:50;5.90;;;2.83;;
70729;SDS011;58315;53.336;55.932;2023-04-01T04:20:16;13.43;;;3.10;;
70729;SDS011;58315;53.336;55.932;2023-04-01T04:22:43;6.70;;;2.38;;
70729;SDS011;58315;53.336;55.932;2023-04-01T04:25:09;7.78;;;2.60;;
70729;SDS011;58315;53.336;55.932;2023-04-01T04:27:36;9.85;;;2.53;;
70729;SDS011;58315;53.336;55.932;2023-04-01T04:32:33;8.73;;;3.42;;
70729;SDS011;58315;53.336;55.932;2023-04-01T04:34:59;11.73;;;3.03;;
70729;SDS011;58315;53.336;55.932;2023-04-01T04:37:26;12.60;;;3.50;;
70729;SDS011;58315;53.336;55.932;2023-04-01T04:39:52;15.70;;;4.82;;
70729;SDS011;58315;53.336;55.932;2023-04-01T04:42:18;15.93;;;5.93;;
70729;SDS011;58315;53.336;55.932;2023-04-01T04:44:45;14.52;;;5.63;;
70729;SDS011;58315;53.336;55.932;2023-04-01T04:47:11;14.25;;;6.88;;
70729;SDS011;58315;53.336;55.932;2023-04-01T04:49:37;16.98;;;5.95;;
70729;SDS011;58315;53.336;55.932;2023-04-01T04:52:07;18.00;;;8.10;;
70729;SDS011;58315;53.336;55.932;2023-04-01T04:54:33;29.73;;;7.72;;
70729;SDS011;58315;53.336;55.932;2023-04-01T04:57:01;27.50;;;8.52;;
70729;SDS011;58315;53.336;55.932;2023-04-01T04:59:31;18.13;;;8.45;;
70729;SDS011;58315;53.336;55.932;2023-04-01T05:02:19;23.95;;;9.27;;
70729;SDS011;58315;53.336;55.932;2023-04-01T05:04:46;14.32;;;6.88;;
70729;SDS011;58315;53.336;55.932;2023-04-01T05:07:12;12.65;;;5.28;;
70729;SDS011;58315;53.336;55.932;2023-04-01T05:09:38;15.75;;;4.28;;
70729;SDS011;58315;53.336;55.932;2023-04-01T05:12:04;12.13;;;3.75;;
70729;SDS011;58315;53.336;55.932;2023-04-01T05:14:49;11.13;;;3.47;;
70729;SDS011;58315;53.336;55.932;2023-04-01T05:17:15;9.38;;;3.08;;
70729;SDS011;58315;53.336;55.932;2023-04-01T05:19:41;9.60;;;2.50;;
70729;SDS011;58315;53.336;55.932;2023-04-01T05:22:08;8.00;;;2.33;;
70729;SDS011;58315;53.336;55.932;2023-04-01T05:24:34;5.32;;;1.80;;
70729;SDS011;58315;53.336;55.932;2023-04-01T05:27:00;20.40;;;2.20;;
70729;SDS011;58315;53.336;55.932;2023-04-01T05:29:27;7.70;;;2.08;;
70729;SDS011;58315;53.336;55.932;2023-04-01T05:32:01;8.25;;;2.38;;
70729;SDS011;58315;53.336;55.932;2023-04-01T05:34:28;11.43;;;2.10;;
70729;SDS011;58315;53.336;55.932;2023-04-01T05:36:54;9.32;;;1.95;;
70729;SDS011;58315;53.336;55.932;2023-04-01T05:39:20;13.02;;;2.10;;
70729;SDS011;58315;53.336;55.932;2023-04-01T05:41:46;10.10;;;1.85;;
70729;SDS011;58315;53.336;55.932;2023-04-01T05:44:12;8.35;;;2.30;;
70729;SDS011;58315;53.336;55.932;2023-04-01T05:46:38;10.57;;;1.90;;
70729;SDS011;58315;53.336;55.932;2023-04-01T05:49:12;8.82;;;1.90;;
70729;SDS011;58315;53.336;55.932;2023-04-01T05:51:38;10.02;;;1.92;;
70729;SDS011;58315;53.336;55.932;2023-04-01T05:54:05;4.60;;;2.00;;
70729;SDS011;58315;53.336;55.932;2023-04-01T05:56:31;15.00;;;2.40;;
70729;SDS011;58315;53.336;55.932;2023-04-01T05:58:58;10.65;;;2.80;;
70729;SDS011;58315;53.336;55.932;2023-04-01T06:01:24;18.17;;;3.10;;
70729;SDS011;58315;53.336;55.932;2023-04-01T06:03:50;11.00;;;2.90;;
70729;SDS011;58315;53.336;55.932;2023-04-01T06:06:23;6.75;;;2.92;;
70729;SDS011;58315;53.336;55.932;2023-04-01T06:08:55;20.30;;;3.50;;
70729;SDS011;58315;53.336;55.932;2023-04-01T06:11:33;13.10;;;3.08;;
70729;SDS011;58315;53.336;55.932;2023-04-01T06:14:11;19.45;;;2.55;;
70729;SDS011;58315;53.336;55.932;2023-04-01T06:17:04;28.88;;;3.50;;
70729;SDS011;58315;53.336;55.932;2023-04-01T06:34:37;9.45;;;2.35;;
70729;SDS011;58315;53.336;55.932;2023-04-01T06:43:13;10.07;;;2.42;;
70729;SDS011;58315;53.336;55.932;2023-04-01T06:46:19;6.90;;;2.38;;
70729;SDS011;58315;53.336;55.932;2023-04-01T06:55:46;8.68;;;1.85;;
70729;SDS011;58315;53.336;55.932;2023-04-01T06:58:43;6.15;;;2.45;;
70729;SDS011;58315;53.336;55.932;2023-04-01T07:01:16;21.92;;;2.65;;
70729;SDS011;58315;53.336;55.932;2023-04-01T07:03:49;5.03;;;2.20;;
70729;SDS011;58315;53.336;55.932;2023-04-01T07:06:32;8.98;;;2.40;;
70729;SDS011;58315;53.336;55.932;2023-04-01T07:09:08;10.93;;;1.98;;
70729;SDS011;58315;53.336;55.932;2023-04-01T07:11:59;12.95;;;2.50;;
70729;SDS011;58315;53.336;55.932;2023-04-01T07:14:58;5.50;;;2.15;;
70729;SDS011;58315;53.336;55.932;2023-04-01T07:17:36;13.38;;;2.20;;
70729;SDS011;58315;53.336;55.932;2023-04-01T07:20:15;15.93;;;2.65;;
70729;SDS011;58315;53.336;55.932;2023-04-01T07:22:44;11.30;;;2.28;;
70729;SDS011;58315;53.336;55.932;2023-04-01T07:25:42;8.23;;;2.20;;
70729;SDS011;58315;53.336;55.932;2023-04-01T07:28:30;10.50;;;2.90;;
70729;SDS011;58315;53.336;55.932;2023-04-01T07:39:45;7.07;;;2.33;;
70729;SDS011;58315;53.336;55.932;2023-04-01T07:42:35;6.47;;;2.28;;
70729;SDS011;58315;53.336;55.932;2023-04-01T07:45:18;11.02;;;2.50;;
70729;SDS011;58315;53.336;55.932;2023-04-01T07:48:25;7.68;;;2.00;;
70729;SDS011;58315;53.336;55.932;2023-04-01T07:51:14;12.80;;;2.38;;
70729;SDS011;58315;53.336;55.932;2023-04-01T07:53:58;7.10;;;2.05;;
70729;SDS011;58315;53.336;55.932;2023-04-01T08:02:59;3.83;;;1.70;;
70729;SDS011;58315;53.336;55.932;2023-04-01T08:05:55;18.25;;;1.80;;
70729;SDS011;58315;53.336;55.932;2023-04-01T08:18:10;3.72;;;1.67;;
70729;SDS011;58315;53.336;55.932;2023-04-01T08:21:02;7.82;;;2.53;;
70729;SDS011;58315;53.336;55.932;2023-04-01T08:23:33;5.75;;;2.13;;
70729;SDS011;58315;53.336;55.932;2023-04-01T08:26:06;6.05;;;2.13;;
70729;SDS011;58315;53.336;55.932;2023-04-01T08:28:44;9.25;;;2.40;;
70729;SDS011;58315;53.336;55.932;2023-04-01T08:33:56;15.30;;;2.30;;
70729;SDS011;58315;53.336;55.932;2023-04-01T08:36:31;10.05;;;2.40;;
70729;SDS011;58315;53.336;55.932;2023-04-01T08:39:54;12.45;;;2.30;;
70729;SDS011;58315;53.336;55.932;2023-04-01T08:56:55;11.60;;;2.35;;
70729;SDS011;58315;53.336;55.932;2023-04-01T09:05:35;8.05;;;2.45;;
70729;SDS011;58315;53.336;55.932;2023-04-01T09:17:14;10.63;;;2.10;;
70729;SDS011;58315;53.336;55.932;2023-04-01T09:28:28;7.22;;;1.95;;
70729;SDS011;58315;53.336;55.932;2023-04-01T09:31:20;13.63;;;2.33;;
70729;SDS011;58315;53.336;55.932;2023-04-01T09:34:30;16.58;;;1.77;;
70729;SDS011;58315;53.336;55.932;2023-04-01T09:37:17;15.13;;;2.17;;
70729;SDS011;58315;53.336;55.932;2023-04-01T09:40:09;6.78;;;1.95;;
70729;SDS011;58315;53.336;55.932;2023-04-01T09:54:52;9.07;;;1.95;;
70729;SDS011;58315;53.336;55.932;2023-04-01T09:57:48;7.93;;;2.17;;
70729;SDS011;58315;53.336;55.932;2023-04-01T10:28:33;8.32;;;1.50;;
70729;SDS011;58315;53.336;55.932;2023-04-01T10:31:47;13.30;;;2.30;;
70729;SDS011;58315;53.336;55.932;2023-04-01T10:34:52;15.73;;;2.08;;
70729;SDS011;58315;53.336;55.932;2023-04-01T11:14:51;11.15;;;2.40;;
70729;SDS011;58315;53.336;55.932;2023-04-01T11:32:29;16.52;;;3.35;;
70729;SDS011;58315;53.336;55.932;2023-04-01T11:49:59;17.67;;;3.13;;
70729;SDS011;58315;53.336;55.932;2023-04-01T12:17:58;7.68;;;3.22;;
70729;SDS011;58315;53.336;55.932;2023-04-01T12:40:36;13.93;;;3.20;;
70729;SDS011;58315;53.336;55.932;2023-04-01T13:11:47;11.75;;;4.15;;
70729;SDS011;58315;53.336;55.932;2023-04-01T13:22:25;11.40;;;4.43;;
70729;SDS011;58315;53.336;55.932;2023-04-01T13:25:00;9.35;;;4.03;;
70729;SDS011;58315;53.336;55.932;2023-04-01T13:27:42;13.52;;;3.85;;
70729;SDS011;58315;53.336;55.932;2023-04-01T13:30:20;17.92;;;3.88;;
70729;SDS011;58315;53.336;55.932;2023-04-01T13:38:56;23.50;;;3.78;;
70729;SDS011;58315;53.336;55.932;2023-04-01T13:52:53;6.60;;;3.83;;
70729;SDS011;58315;53.336;55.932;2023-04-01T13:58:42;13.55;;;3.90;;
70729;SDS011;58315;53.336;55.932;2023-04-01T14:03:53;18.88;;;5.07;;
70729;SDS011;58315;53.336;55.932;2023-04-01T14:09:08;11.63;;;4.28;;
70729;SDS011;58315;53.336;55.932;2023-04-01T14:14:36;29.67;;;6.40;;
70729;SDS011;58315;53.336;55.932;2023-04-01T14:17:09;21.40;;;5.38;;
70729;SDS011;58315;53.336;55.932;2023-04-01T14:22:54;10.73;;;3.47;;
70729;SDS011;58315;53.336;55.932;2023-04-01T14:28:44;15.38;;;2.90;;
70729;SDS011;58315;53.336;55.932;2023-04-01T14:36:46;5.90;;;2.40;;
70729;SDS011;58315;53.336;55.932;2023-04-01T14:48:25;4.68;;;2.28;;
70729;SDS011;58315;53.336;55.932;2023-04-01T14:50:54;4.35;;;2.28;;
70729;SDS011;58315;53.336;55.932;2023-04-01T14:53:34;9.63;;;3.17;;
70729;SDS011;58315;53.336;55.932;2023-04-01T14:56:08;6.45;;;3.30;;
70729;SDS011;58315;53.336;55.932;2023-04-01T14:58:46;14.32;;;2.92;;
70729;SDS011;58315;53.336;55.932;2023-04-01T15:09:32;12.65;;;4.00;;
70729;SDS011;58315;53.336;55.932;2023-04-01T15:23:19;10.07;;;3.33;;
70729;SDS011;58315;53.336;55.932;2023-04-01T15:35:10;5.88;;;3.13;;
70729;SDS011;58315;53.336;55.932;2023-04-01T15:40:30;12.05;;;4.90;;
70729;SDS011;58315;53.336;55.932;2023-04-01T15:57:28;8.65;;;4.55;;
70729;SDS011;58315;53.336;55.932;2023-04-01T16:00:09;10.55;;;4.00;;
70729;SDS011;58315;53.336;55.932;2023-04-01T16:02:48;19.35;;;4.07;;
70729;SDS011;58315;53.336;55.932;2023-04-01T16:08:09;19.90;;;5.38;;
70729;SDS011;58315;53.336;55.932;2023-04-01T16:21:52;17.50;;;5.15;;
70729;SDS011;58315;53.336;55.932;2023-04-01T16:24:41;22.35;;;4.05;;
70729;SDS011;58315;53.336;55.932;2023-04-01T16:29:55;10.45;;;4.45;;
70729;SDS011;58315;53.336;55.932;2023-04-01T16:32:44;12.80;;;4.80;;
70729;SDS011;58315;53.336;55.932;2023-04-01T16:35:40;9.10;;;4.57;;
70729;SDS011;58315;53.336;55.932;2023-04-01T16:40:50;13.48;;;4.90;;
70729;SDS011;58315;53.336;55.932;2023-04-01T16:48:23;23.20;;;5.93;;
70729;SDS011;58315;53.336;55.932;2023-04-01T16:51:00;17.77;;;6.80;;
70729;SDS011;58315;53.336;55.932;2023-04-01T16:56:22;22.48;;;7.82;;
70729;SDS011;58315;53.336;55.932;2023-04-01T17:04:19;15.50;;;7.03;;
70729;SDS011;58315;53.336;55.932;2023-04-01T17:12:23;18.48;;;6.72;;
70729;SDS011;58315;53.336;55.932;2023-04-01T17:15:04;22.05;;;6.90;;
70729;SDS011;58315;53.336;55.932;2023-04-01T17:17:36;30.65;;;9.05;;
70729;SDS011;58315;53.336;55.932;2023-04-01T17:29:03;30.25;;;9.65;;
70729;SDS011;58315;53.336;55.932;2023-04-01T17:39:54;35.30;;;12.70;;
70729;SDS011;58315;53.336;55.932;2023-04-01T18:11:00;27.58;;;7.95;;
70729;SDS011;58315;53.336;55.932;2023-04-01T18:16:11;21.13;;;6.80;;
70729;SDS011;58315;53.336;55.932;2023-04-01T18:21:48;15.20;;;6.10;;
70729;SDS011;58315;53.336;55.932;2023-04-01T18:26:49;22.13;;;5.63;;
70729;SDS011;58315;53.336;55.932;2023-04-01T18:35:00;23.17;;;6.87;;
70729;SDS011;58315;53.336;55.932;2023-04-01T18:37:50;16.00;;;5.82;;
70729;SDS011;58315;53.336;55.932;2023-04-01T18:40:22;14.82;;;6.00;;
70729;SDS011;58315;53.336;55.932;2023-04-01T18:43:05;17.30;;;5.63;;
70729;SDS011;58315;53.336;55.932;2023-04-01T18:45:54;18.90;;;5.93;;
70729;SDS011;58315;53.336;55.932;2023-04-01T18:53:42;13.40;;;5.55;;
70729;SDS011;58315;53.336;55.932;2023-04-01T18:56:14;14.88;;;6.07;;
70729;SDS011;58315;53.336;55.932;2023-04-01T18:59:08;16.00;;;5.55;;
70729;SDS011;58315;53.336;55.932;2023-04-01T19:04:50;10.93;;;5.28;;
70729;SDS011;58315;53.336;55.932;2023-04-01T19:20:51;27.90;;;5.35;;
70729;SDS011;58315;53.336;55.932;2023-04-01T19:29:25;18.20;;;5.63;;
70729;SDS011;58315;53.336;55.932;2023-04-01T19:32:12;25.40;;;5.13;;
70729;SDS011;58315;53.336;55.932;2023-04-01T19:43:10;14.45;;;6.55;;
70729;SDS011;58315;53.336;55.932;2023-04-01T19:45:51;18.15;;;5.93;;
70729;SDS011;58315;53.336;55.932;2023-04-01T19:48:31;21.73;;;5.68;;
70729;SDS011;58315;53.336;55.932;2023-04-01T19:53:51;14.60;;;5.47;;
70729;SDS011;58315;53.336;55.932;2023-04-01T19:56:18;39.10;;;8.20;;
70729;SDS011;58315;53.336;55.932;2023-04-01T19:58:53;17.20;;;7.43;;
70729;SDS011;58315;53.336;55.932;2023-04-01T20:01:49;25.42;;;7.97;;
70729;SDS011;58315;53.336;55.932;2023-04-01T20:05:24;21.08;;;7.22;;
70729;SDS011;58315;53.336;55.932;2023-04-01T20:10:40;32.45;;;8.18;;
70729;SDS011;58315;53.336;55.932;2023-04-01T20:16:09;17.35;;;7.13;;
70729;SDS011;58315;53.336;55.932;2023-04-01T20:18:39;15.73;;;5.70;;
70729;SDS011;58315;53.336;55.932;2023-04-01T20:21:33;18.38;;;6.00;;
70729;SDS011;58315;53.336;55.932;2023-04-01T20:26:43;19.88;;;5.90;;
70729;SDS011;58315;53.336;55.932;2023-04-01T20:32:11;14.13;;;5.35;;
70729;SDS011;58315;53.336;55.932;2023-04-01T20:34:43;13.77;;;4.97;;
70729;SDS011;58315;53.336;55.932;2023-04-01T20:40:17;23.23;;;7.43;;
70729;SDS011;58315;53.336;55.932;2023-04-01T20:45:32;15.27;;;5.43;;
70729;SDS011;58315;53.336;55.932;2023-04-01T20:50:51;15.73;;;6.22;;
70729;SDS011;58315;53.336;55.932;2023-04-01T21:07:13;20.27;;;8.60;;
70729;SDS011;58315;53.336;55.932;2023-04-01T21:12:56;24.40;;;11.27;;
70729;SDS011;58315;53.336;55.932;2023-04-01T21:21:30;20.35;;;8.75;;
70729;SDS011;58315;53.336;55.932;2023-04-01T21:29:47;29.33;;;8.82;;
70729;SDS011;58315;53.336;55.932;2023-04-01T21:35:14;14.57;;;7.35;;
70729;SDS011;58315;53.336;55.932;2023-04-01T21:40:47;14.43;;;5.03;;
70729;SDS011;58315;53.336;55.932;2023-04-01T22:14:29;16.65;;;6.15;;
70729;SDS011;58315;53.336;55.932;2023-04-01T22:17:30;13.70;;;6.32;;
70729;SDS011;58315;53.336;55.932;2023-04-01T22:20:49;23.20;;;7.28;;
70729;SDS011;58315;53.336;55.932;2023-04-01T22:31:28;17.20;;;6.32;;
70729;SDS011;58315;53.336;55.932;2023-04-01T22:34:09;22.83;;;6.90;;
70729;SDS011;58315;53.336;55.932;2023-04-01T22:40:16;14.40;;;6.50;;
70729;SDS011;58315;53.336;55.932;2023-04-01T22:43:04;16.77;;;6.25;;
70729;SDS011;58315;53.336;55.932;2023-04-01T22:56:35;14.02;;;5.72;;
70729;SDS011;58315;53.336;55.932;2023-04-01T22:59:10;15.25;;;6.20;;
70729;SDS011;58315;53.336;55.932;2023-04-01T23:01:44;19.88;;;6.22;;
70729;SDS011;58315;53.336;55.932;2023-04-01T23:04:16;18.27;;;6.10;;
70729;SDS011;58315;53.336;55.932;2023-04-01T23:06:50;15.63;;;5.60;;
70729;SDS011;58315;53.336;55.932;2023-04-01T23:09:25;18.08;;;6.68;;
70729;SDS011;58315;53.336;55.932;2023-04-01T23:11:58;12.55;;;5.63;;
70729;SDS011;58315;53.336;55.932;2023-04-01T23:14:30;21.33;;;6.22;;
70729;SDS011;58315;53.336;55.932;2023-04-01T23:19:42;17.83;;;6.20;;
70729;SDS011;58315;53.336;55.932;2023-04-01T23:35:50;17.08;;;6.10;;
70729;SDS011;58315;53.336;55.932;2023-04-01T23:38:25;31.10;;;8.20;;
70729;SDS011;58315;53.336;55.932;2023-04-01T23:40:52;26.98;;;9.02;;
70729;SDS011;58315;53.336;55.932;2023-04-01T23:43:39;33.33;;;10.93;;
70729;SDS011;58315;53.336;55.932;2023-04-01T23:46:08;37.53;;;12.95;;
70729;SDS011;58315;53.336;55.932;2023-04-01T23:48:38;37.78;;;10.95;;
70729;SDS011;58315;53.336;55.932;2023-04-01T23:51:12;30.40;;;9.48;;
70729;SDS011;58315;53.336;55.932;2023-04-01T23:53:43;18.25;;;6.65;;
70729;SDS011;58315;53.336;55.932;2023-04-01T23:56:11;22.20;;;6.50;;
